sensor_id;sensor_type;location;lat;lon;timestamp;pressure;altitude;pressure_sealevel;temperature;humidity
61014;BME280;46899;47.542;19.082;2022-07-23T00:00:22;100326.44;;;24.32;59.48
61014;BME280;46899;47.542;19.082;2022-07-23T00:03:25;100324.34;;;24.26;59.59
61014;BME280;46899;47.542;19.082;2022-07-23T00:06:27;100322.25;;;24.20;59.61
61014;BME280;46899;47.542;19.082;2022-07-23T00:09:29;100322.69;;;24.16;58.89
61014;BME280;46899;47.542;19.082;2022-07-23T00:12:33;100318.63;;;24.12;59.71
61014;BME280;46899;47.542;19.082;2022-07-23T00:15:36;100312.97;;;24.05;59.89
61014;BME280;46899;47.542;19.082;2022-07-23T00:18:38;100316.06;;;24.01;59.39
61014;BME280;46899;47.542;19.082;2022-07-23T00:21:41;100319.13;;;23.96;59.16
61014;BME280;46899;47.542;19.082;2022-07-23T00:24:43;100319.00;;;23.88;59.44
61014;BME280;46899;47.542;19.082;2022-07-23T00:28:05;100321.09;;;23.85;59.59
61014;BME280;46899;47.542;19.082;2022-07-23T00:31:08;100320.81;;;23.78;59.80
61014;BME280;46899;47.542;19.082;2022-07-23T00:34:11;100323.88;;;23.73;60.62
61014;BME280;46899;47.542;19.082;2022-07-23T00:37:13;100326.97;;;23.69;60.90
61014;BME280;46899;47.542;19.082;2022-07-23T00:40:16;100329.31;;;23.62;61.32
61014;BME280;46899;47.542;19.082;2022-07-23T00:43:19;100331.16;;;23.62;62.38
61014;BME280;46899;47.542;19.082;2022-07-23T00:46:22;100344.12;;;23.55;62.89
61014;BME280;46899;47.542;19.082;2022-07-23T00:49:29;100332.50;;;23.47;63.81
61014;BME280;46899;47.542;19.082;2022-07-23T00:52:32;100338.22;;;23.42;63.81
61014;BME280;46899;47.542;19.082;2022-07-23T00:55:35;100341.13;;;23.39;64.35
61014;BME280;46899;47.542;19.082;2022-07-23T00:58:38;100337.19;;;23.34;64.89
61014;BME280;46899;47.542;19.082;2022-07-23T01:01:41;100339.41;;;23.29;65.38
61014;BME280;46899;47.542;19.082;2022-07-23T01:04:43;100330.16;;;23.23;65.58
61014;BME280;46899;47.542;19.082;2022-07-23T01:07:46;100335.72;;;23.20;65.96
61014;BME280;46899;47.542;19.082;2022-07-23T01:10:48;100336.97;;;23.16;66.65
61014;BME280;46899;47.542;19.082;2022-07-23T01:13:53;100338.63;;;23.07;67.11
61014;BME280;46899;47.542;19.082;2022-07-23T01:16:56;100333.72;;;23.03;67.02
61014;BME280;46899;47.542;19.082;2022-07-23T01:19:58;100339.28;;;23.00;67.48
61014;BME280;46899;47.542;19.082;2022-07-23T01:23:01;100335.66;;;23.01;66.99
61014;BME280;46899;47.542;19.082;2022-07-23T01:26:04;100330.91;;;23.04;66.77
61014;BME280;46899;47.542;19.082;2022-07-23T01:29:07;100331.47;;;22.98;67.23
61014;BME280;46899;47.542;19.082;2022-07-23T01:32:09;100322.34;;;22.91;67.29
61014;BME280;46899;47.542;19.082;2022-07-23T01:35:12;100335.03;;;22.88;67.29
61014;BME280;46899;47.542;19.082;2022-07-23T01:38:15;100332.06;;;22.81;68.02
61014;BME280;46899;47.542;19.082;2022-07-23T01:41:18;100333.31;;;22.77;68.19
61014;BME280;46899;47.542;19.082;2022-07-23T01:44:21;100332.03;;;22.72;68.52
61014;BME280;46899;47.542;19.082;2022-07-23T01:47:24;100331.56;;;22.67;68.91
61014;BME280;46899;47.542;19.082;2022-07-23T01:50:28;100333.38;;;22.66;69.09
61014;BME280;46899;47.542;19.082;2022-07-23T01:53:31;100339.38;;;22.68;68.91
61014;BME280;46899;47.542;19.082;2022-07-23T01:56:33;100337.12;;;22.64;68.86
61014;BME280;46899;47.542;19.082;2022-07-23T01:59:36;100343.62;;;22.60;69.07
61014;BME280;46899;47.542;19.082;2022-07-23T02:02:41;100343.06;;;22.56;69.25
61014;BME280;46899;47.542;19.082;2022-07-23T02:05:44;100338.72;;;22.55;69.57
61014;BME280;46899;47.542;19.082;2022-07-23T02:08:46;100335.63;;;22.50;70.01
61014;BME280;46899;47.542;19.082;2022-07-23T02:11:49;100330.56;;;22.47;69.93
61014;BME280;46899;47.542;19.082;2022-07-23T02:14:53;100323.44;;;22.47;70.04
61014;BME280;46899;47.542;19.082;2022-07-23T02:17:56;100320.47;;;22.41;70.34
61014;BME280;46899;47.542;19.082;2022-07-23T02:20:58;100330.38;;;22.39;69.88
61014;BME280;46899;47.542;19.082;2022-07-23T02:24:02;100328.81;;;22.36;69.61
61014;BME280;46899;47.542;19.082;2022-07-23T02:27:05;100333.88;;;22.39;69.62
61014;BME280;46899;47.542;19.082;2022-07-23T02:30:08;100321.91;;;22.45;69.33
61014;BME280;46899;47.542;19.082;2022-07-23T02:33:10;100326.75;;;22.40;69.17
61014;BME280;46899;47.542;19.082;2022-07-23T02:36:14;100329.69;;;22.37;68.98
61014;BME280;46899;47.542;19.082;2022-07-23T02:39:17;100334.28;;;22.35;68.55
61014;BME280;46899;47.542;19.082;2022-07-23T02:42:19;100332.31;;;22.37;67.62
61014;BME280;46899;47.542;19.082;2022-07-23T02:45:23;100333.75;;;22.41;68.42
61014;BME280;46899;47.542;19.082;2022-07-23T02:48:27;100334.69;;;22.40;67.41
61014;BME280;46899;47.542;19.082;2022-07-23T02:51:30;100340.28;;;22.37;66.77
61014;BME280;46899;47.542;19.082;2022-07-23T02:54:32;100339.81;;;22.32;66.71
61014;BME280;46899;47.542;19.082;2022-07-23T02:57:37;100336.47;;;22.30;66.82
61014;BME280;46899;47.542;19.082;2022-07-23T03:00:40;100331.03;;;22.31;66.62
61014;BME280;46899;47.542;19.082;2022-07-23T03:03:42;100337.56;;;22.27;66.96
61014;BME280;46899;47.542;19.082;2022-07-23T03:06:45;100324.87;;;22.31;66.82
61014;BME280;46899;47.542;19.082;2022-07-23T03:09:47;100328.50;;;22.30;67.02
61014;BME280;46899;47.542;19.082;2022-07-23T03:12:50;100334.12;;;22.36;67.01
61014;BME280;46899;47.542;19.082;2022-07-23T03:15:52;100339.81;;;22.32;67.10
61014;BME280;46899;47.542;19.082;2022-07-23T03:18:55;100335.47;;;22.31;67.40
61014;BME280;46899;47.542;19.082;2022-07-23T03:21:57;100342.72;;;22.29;67.58
61014;BME280;46899;47.542;19.082;2022-07-23T03:25:00;100342.59;;;22.30;67.15
61014;BME280;46899;47.542;19.082;2022-07-23T03:28:03;100340.28;;;22.37;66.90
61014;BME280;46899;47.542;19.082;2022-07-23T03:31:06;100338.19;;;22.40;66.64
61014;BME280;46899;47.542;19.082;2022-07-23T03:34:09;100341.16;;;22.47;66.31
61014;BME280;46899;47.542;19.082;2022-07-23T03:37:11;100343.81;;;22.47;66.82
61014;BME280;46899;47.542;19.082;2022-07-23T03:40:14;100338.97;;;22.52;66.69
61014;BME280;46899;47.542;19.082;2022-07-23T03:43:17;100347.62;;;22.54;66.64
61014;BME280;46899;47.542;19.082;2022-07-23T03:46:19;100338.34;;;22.60;66.75
61014;BME280;46899;47.542;19.082;2022-07-23T03:49:22;100341.63;;;22.63;66.71
61014;BME280;46899;47.542;19.082;2022-07-23T03:52:24;100339.66;;;22.65;66.76
61014;BME280;46899;47.542;19.082;2022-07-23T03:55:27;100342.78;;;22.70;66.64
61014;BME280;46899;47.542;19.082;2022-07-23T03:58:29;100340.19;;;22.80;66.37
61014;BME280;46899;47.542;19.082;2022-07-23T04:01:32;100342.84;;;22.89;66.26
61014;BME280;46899;47.542;19.082;2022-07-23T04:04:35;100340.38;;;22.97;66.41
61014;BME280;46899;47.542;19.082;2022-07-23T04:07:37;100343.78;;;23.09;66.92
61014;BME280;46899;47.542;19.082;2022-07-23T04:10:40;100344.69;;;23.19;66.69
61014;BME280;46899;47.542;19.082;2022-07-23T04:13:43;100350.59;;;23.32;65.78
61014;BME280;46899;47.542;19.082;2022-07-23T04:16:46;100350.81;;;23.50;65.32
61014;BME280;46899;47.542;19.082;2022-07-23T04:19:49;100351.41;;;23.63;64.65
61014;BME280;46899;47.542;19.082;2022-07-23T04:22:51;100353.97;;;23.74;64.57
61014;BME280;46899;47.542;19.082;2022-07-23T04:25:54;100359.16;;;23.85;63.62
61014;BME280;46899;47.542;19.082;2022-07-23T04:28:59;100357.47;;;23.94;61.97
61014;BME280;46899;47.542;19.082;2022-07-23T04:32:02;100357.06;;;23.98;61.81
61014;BME280;46899;47.542;19.082;2022-07-23T04:35:05;100359.59;;;24.00;61.66
61014;BME280;46899;47.542;19.082;2022-07-23T04:38:08;100351.47;;;23.92;58.73
61014;BME280;46899;47.542;19.082;2022-07-23T04:41:11;100359.16;;;23.95;58.77
61014;BME280;46899;47.542;19.082;2022-07-23T04:44:13;100352.44;;;24.00;58.25
61014;BME280;46899;47.542;19.082;2022-07-23T04:47:16;100363.91;;;24.01;57.79
61014;BME280;46899;47.542;19.082;2022-07-23T04:50:19;100363.91;;;24.01;57.81
61014;BME280;46899;47.542;19.082;2022-07-23T04:53:24;100365.22;;;24.06;57.84
61014;BME280;46899;47.542;19.082;2022-07-23T04:56:26;100368.31;;;24.11;58.51
61014;BME280;46899;47.542;19.082;2022-07-23T04:59:29;100365.34;;;24.14;57.67
61014;BME280;46899;47.542;19.082;2022-07-23T05:02:31;100375.56;;;24.28;56.17
61014;BME280;46899;47.542;19.082;2022-07-23T05:05:35;100376.69;;;24.35;55.05
61014;BME280;46899;47.542;19.082;2022-07-23T05:08:39;100368.41;;;24.58;54.67
61014;BME280;46899;47.542;19.082;2022-07-23T05:11:44;100361.81;;;24.71;54.86
61014;BME280;46899;47.542;19.082;2022-07-23T05:14:46;100362.50;;;24.83;55.55
61014;BME280;46899;47.542;19.082;2022-07-23T05:17:49;100371.84;;;25.06;55.12
61014;BME280;46899;47.542;19.082;2022-07-23T05:20:51;100358.56;;;25.33;54.82
61014;BME280;46899;47.542;19.082;2022-07-23T05:23:54;100360.16;;;25.53;52.22
61014;BME280;46899;47.542;19.082;2022-07-23T05:26:57;100366.66;;;25.68;52.09
61014;BME280;46899;47.542;19.082;2022-07-23T05:30:01;100357.25;;;25.92;51.27
61014;BME280;46899;47.542;19.082;2022-07-23T05:33:04;100365.56;;;26.06;50.07
61014;BME280;46899;47.542;19.082;2022-07-23T05:36:07;100367.28;;;26.25;49.11
61014;BME280;46899;47.542;19.082;2022-07-23T05:39:09;100366.44;;;26.42;49.40
61014;BME280;46899;47.542;19.082;2022-07-23T05:42:12;100366.25;;;26.61;47.67
61014;BME280;46899;47.542;19.082;2022-07-23T05:45:15;100365.13;;;26.89;47.18
61014;BME280;46899;47.542;19.082;2022-07-23T05:48:19;100365.25;;;27.13;46.57
61014;BME280;46899;47.542;19.082;2022-07-23T05:51:24;100365.47;;;27.46;46.54
61014;BME280;46899;47.542;19.082;2022-07-23T05:54:27;100354.75;;;27.96;44.93
61014;BME280;46899;47.542;19.082;2022-07-23T05:57:29;100364.88;;;28.66;43.47
61014;BME280;46899;47.542;19.082;2022-07-23T06:00:32;100351.53;;;30.13;39.75
61014;BME280;46899;47.542;19.082;2022-07-23T06:03:34;100362.34;;;30.28;39.11
61014;BME280;46899;47.542;19.082;2022-07-23T06:06:37;100367.19;;;30.10;39.84
61014;BME280;46899;47.542;19.082;2022-07-23T06:09:41;100358.09;;;30.11;40.51
61014;BME280;46899;47.542;19.082;2022-07-23T06:12:43;100363.38;;;29.65;40.17
61014;BME280;46899;47.542;19.082;2022-07-23T06:15:46;100357.56;;;29.07;41.63
61014;BME280;46899;47.542;19.082;2022-07-23T06:18:49;100348.25;;;28.87;41.25
61014;BME280;46899;47.542;19.082;2022-07-23T06:21:51;100351.06;;;28.93;41.12
61014;BME280;46899;47.542;19.082;2022-07-23T06:24:54;100338.53;;;28.86;40.20
61014;BME280;46899;47.542;19.082;2022-07-23T06:27:56;100348.25;;;28.79;39.60
61014;BME280;46899;47.542;19.082;2022-07-23T06:31:01;100345.91;;;28.84;40.34
61014;BME280;46899;47.542;19.082;2022-07-23T06:34:06;100340.62;;;29.23;39.40
61014;BME280;46899;47.542;19.082;2022-07-23T06:37:10;100345.31;;;29.59;38.58
61014;BME280;46899;47.542;19.082;2022-07-23T06:40:15;100345.28;;;29.67;38.57
61014;BME280;46899;47.542;19.082;2022-07-23T06:43:18;100342.41;;;30.00;37.47
61014;BME280;46899;47.542;19.082;2022-07-23T06:46:20;100338.69;;;30.01;37.53
61014;BME280;46899;47.542;19.082;2022-07-23T06:49:24;100336.56;;;30.19;36.53
61014;BME280;46899;47.542;19.082;2022-07-23T06:52:26;100344.38;;;30.06;37.33
61014;BME280;46899;47.542;19.082;2022-07-23T06:55:29;100332.09;;;30.34;37.84
61014;BME280;46899;47.542;19.082;2022-07-23T06:58:31;100332.00;;;30.79;36.50
61014;BME280;46899;47.542;19.082;2022-07-23T07:01:34;100344.97;;;33.18;32.43
61014;BME280;46899;47.542;19.082;2022-07-23T07:04:37;100340.59;;;37.88;24.75
61014;BME280;46899;47.542;19.082;2022-07-23T07:07:39;100337.16;;;42.03;19.24
61014;BME280;46899;47.542;19.082;2022-07-23T07:10:42;100337.25;;;44.15;17.19
61014;BME280;46899;47.542;19.082;2022-07-23T07:13:44;100332.09;;;45.43;15.81
61014;BME280;46899;47.542;19.082;2022-07-23T07:16:47;100331.19;;;46.02;15.34
61014;BME280;46899;47.542;19.082;2022-07-23T07:19:49;100329.41;;;45.23;16.10
61014;BME280;46899;47.542;19.082;2022-07-23T07:22:52;100325.16;;;46.34;15.31
61014;BME280;46899;47.542;19.082;2022-07-23T07:25:54;100319.34;;;48.60;13.47
61014;BME280;46899;47.542;19.082;2022-07-23T07:28:57;100318.97;;;48.35;13.39
61014;BME280;46899;47.542;19.082;2022-07-23T07:32:00;100317.12;;;48.30;13.51
61014;BME280;46899;47.542;19.082;2022-07-23T07:35:03;100324.03;;;50.13;11.81
61014;BME280;46899;47.542;19.082;2022-07-23T07:38:06;100324.16;;;50.30;12.02
61014;BME280;46899;47.542;19.082;2022-07-23T07:41:09;100318.84;;;50.20;11.69
61014;BME280;46899;47.542;19.082;2022-07-23T07:44:12;100314.56;;;51.88;10.77
61014;BME280;46899;47.542;19.082;2022-07-23T07:47:14;100315.03;;;50.91;11.37
61014;BME280;46899;47.542;19.082;2022-07-23T07:50:17;100316.78;;;50.48;12.36
61014;BME280;46899;47.542;19.082;2022-07-23T07:53:20;100308.81;;;51.85;10.65
61014;BME280;46899;47.542;19.082;2022-07-23T07:56:23;100312.34;;;52.83;10.50
61014;BME280;46899;47.542;19.082;2022-07-23T07:59:26;100300.47;;;53.03;10.18
61014;BME280;46899;47.542;19.082;2022-07-23T08:02:44;100306.78;;;53.21;9.89
61014;BME280;46899;47.542;19.082;2022-07-23T08:05:47;100301.22;;;52.83;10.06
61014;BME280;46899;47.542;19.082;2022-07-23T08:08:50;100296.53;;;54.08;9.46
61014;BME280;46899;47.542;19.082;2022-07-23T08:11:52;100307.53;;;54.25;9.27
61014;BME280;46899;47.542;19.082;2022-07-23T08:14:55;100304.78;;;52.92;9.92
61014;BME280;46899;47.542;19.082;2022-07-23T08:18:00;100287.56;;;51.46;10.64
61014;BME280;46899;47.542;19.082;2022-07-23T08:21:02;100300.28;;;50.74;11.43
61014;BME280;46899;47.542;19.082;2022-07-23T08:24:07;100297.59;;;52.45;10.20
61014;BME280;46899;47.542;19.082;2022-07-23T08:27:11;100305.81;;;53.38;9.64
61014;BME280;46899;47.542;19.082;2022-07-23T08:30:13;100297.81;;;54.10;9.24
61014;BME280;46899;47.542;19.082;2022-07-23T08:33:16;100288.31;;;53.58;9.39
61014;BME280;46899;47.542;19.082;2022-07-23T08:36:35;100286.53;;;54.07;8.98
61014;BME280;46899;47.542;19.082;2022-07-23T08:39:37;100291.03;;;53.87;8.83
61014;BME280;46899;47.542;19.082;2022-07-23T08:42:40;100293.66;;;54.16;8.69
61014;BME280;46899;47.542;19.082;2022-07-23T08:45:44;100295.59;;;54.73;8.38
61014;BME280;46899;47.542;19.082;2022-07-23T08:48:48;100300.84;;;55.10;7.83
61014;BME280;46899;47.542;19.082;2022-07-23T08:51:51;100292.56;;;54.54;7.94
61014;BME280;46899;47.542;19.082;2022-07-23T08:54:54;100289.00;;;54.08;8.46
61014;BME280;46899;47.542;19.082;2022-07-23T08:57:56;100285.19;;;53.59;8.81
61014;BME280;46899;47.542;19.082;2022-07-23T09:00:59;100293.50;;;55.18;8.18
61014;BME280;46899;47.542;19.082;2022-07-23T09:04:02;100282.03;;;54.83;7.96
61014;BME280;46899;47.542;19.082;2022-07-23T09:07:05;100269.22;;;54.01;8.49
61014;BME280;46899;47.542;19.082;2022-07-23T09:10:09;100270.72;;;54.43;8.10
61014;BME280;46899;47.542;19.082;2022-07-23T09:19:28;100271.72;;;53.82;8.51
61014;BME280;46899;47.542;19.082;2022-07-23T09:22:31;100261.31;;;53.08;8.78
61014;BME280;46899;47.542;19.082;2022-07-23T09:25:33;100256.59;;;53.00;9.07
61014;BME280;46899;47.542;19.082;2022-07-23T09:28:46;100262.88;;;51.87;9.79
61014;BME280;46899;47.542;19.082;2022-07-23T09:31:50;100249.09;;;49.52;11.17
61014;BME280;46899;47.542;19.082;2022-07-23T09:34:53;100238.91;;;46.62;13.62
61014;BME280;46899;47.542;19.082;2022-07-23T09:38:02;100235.56;;;44.81;15.19
61014;BME280;46899;47.542;19.082;2022-07-23T09:41:08;100233.50;;;43.87;16.10
61014;BME280;46899;47.542;19.082;2022-07-23T09:44:15;100231.81;;;43.51;16.75
61014;BME280;46899;47.542;19.082;2022-07-23T09:47:18;100228.06;;;42.90;16.93
61014;BME280;46899;47.542;19.082;2022-07-23T09:50:21;100228.09;;;42.95;17.32
61014;BME280;46899;47.542;19.082;2022-07-23T09:53:29;100231.56;;;42.85;16.95
61014;BME280;46899;47.542;19.082;2022-07-23T09:56:32;100214.56;;;42.32;17.62
61014;BME280;46899;47.542;19.082;2022-07-23T09:59:36;100216.00;;;42.07;17.50
61014;BME280;46899;47.542;19.082;2022-07-23T10:02:39;100217.47;;;42.15;17.44
61014;BME280;46899;47.542;19.082;2022-07-23T10:05:47;100216.75;;;41.66;17.91
61014;BME280;46899;47.542;19.082;2022-07-23T10:08:51;100220.16;;;41.51;17.88
61014;BME280;46899;47.542;19.082;2022-07-23T10:11:59;100205.63;;;41.73;18.25
61014;BME280;46899;47.542;19.082;2022-07-23T10:15:13;100204.56;;;41.74;17.81
61014;BME280;46899;47.542;19.082;2022-07-23T10:18:16;100196.19;;;41.85;17.36
61014;BME280;46899;47.542;19.082;2022-07-23T10:21:37;100201.97;;;41.94;17.43
61014;BME280;46899;47.542;19.082;2022-07-23T10:24:59;100198.62;;;41.87;17.72
61014;BME280;46899;47.542;19.082;2022-07-23T10:35:07;100202.50;;;41.32;18.21
61014;BME280;46899;47.542;19.082;2022-07-23T10:38:13;100196.16;;;41.27;18.23
61014;BME280;46899;47.542;19.082;2022-07-23T10:41:31;100181.66;;;41.26;18.31
61014;BME280;46899;47.542;19.082;2022-07-23T10:44:38;100180.47;;;41.71;17.71
61014;BME280;46899;47.542;19.082;2022-07-23T10:47:41;100186.19;;;41.42;18.20
61014;BME280;46899;47.542;19.082;2022-07-23T10:54:21;100182.91;;;41.40;18.50
61014;BME280;46899;47.542;19.082;2022-07-23T10:57:24;100172.37;;;41.01;18.60
61014;BME280;46899;47.542;19.082;2022-07-23T11:00:28;100158.87;;;41.42;18.19
61014;BME280;46899;47.542;19.082;2022-07-23T11:03:32;100165.59;;;41.93;18.22
61014;BME280;46899;47.542;19.082;2022-07-23T11:07:09;100164.53;;;41.68;18.33
61014;BME280;46899;47.542;19.082;2022-07-23T11:10:06;100158.31;;;41.72;17.95
61014;BME280;46899;47.542;19.082;2022-07-23T11:16:26;100158.25;;;41.35;18.52
61014;BME280;46899;47.542;19.082;2022-07-23T11:19:29;100153.19;;;40.96;18.22
61014;BME280;46899;47.542;19.082;2022-07-23T11:25:40;100139.22;;;41.19;18.17
61014;BME280;46899;47.542;19.082;2022-07-23T11:28:43;100134.03;;;41.17;17.91
61014;BME280;46899;47.542;19.082;2022-07-23T11:32:04;100131.84;;;40.92;17.67
61014;BME280;46899;47.542;19.082;2022-07-23T11:35:21;100136.03;;;41.00;18.05
61014;BME280;46899;47.542;19.082;2022-07-23T11:38:24;100131.41;;;41.27;17.56
61014;BME280;46899;47.542;19.082;2022-07-23T11:41:26;100132.88;;;41.13;17.92
61014;BME280;46899;47.542;19.082;2022-07-23T11:44:32;100128.44;;;41.07;17.46
61014;BME280;46899;47.542;19.082;2022-07-23T11:47:35;100119.97;;;40.82;18.13
61014;BME280;46899;47.542;19.082;2022-07-23T11:50:37;100114.75;;;41.02;18.13
61014;BME280;46899;47.542;19.082;2022-07-23T11:53:40;100111.44;;;41.00;18.15
61014;BME280;46899;47.542;19.082;2022-07-23T11:56:58;100111.56;;;41.10;17.44
61014;BME280;46899;47.542;19.082;2022-07-23T12:00:08;100107.03;;;41.52;17.30
61014;BME280;46899;47.542;19.082;2022-07-23T12:03:13;100090.66;;;41.57;17.09
61014;BME280;46899;47.542;19.082;2022-07-23T12:06:16;100098.16;;;41.72;16.66
61014;BME280;46899;47.542;19.082;2022-07-23T12:09:19;100086.84;;;41.58;16.85
61014;BME280;46899;47.542;19.082;2022-07-23T12:12:22;100083.28;;;41.58;17.11
61014;BME280;46899;47.542;19.082;2022-07-23T12:15:26;100076.56;;;41.07;17.97
61014;BME280;46899;47.542;19.082;2022-07-23T12:18:31;100076.00;;;40.57;18.12
61014;BME280;46899;47.542;19.082;2022-07-23T12:21:33;100071.50;;;40.46;18.29
61014;BME280;46899;47.542;19.082;2022-07-23T12:24:52;100070.31;;;40.63;18.78
61014;BME280;46899;47.542;19.082;2022-07-23T12:28:37;100069.38;;;40.31;19.01
61014;BME280;46899;47.542;19.082;2022-07-23T12:31:25;100061.84;;;40.16;19.28
61014;BME280;46899;47.542;19.082;2022-07-23T12:34:27;100057.28;;;39.84;19.49
61014;BME280;46899;47.542;19.082;2022-07-23T12:37:32;100048.97;;;40.12;19.22
61014;BME280;46899;47.542;19.082;2022-07-23T12:40:49;100051.66;;;40.77;18.20
61014;BME280;46899;47.542;19.082;2022-07-23T12:43:52;100050.84;;;41.03;18.16
61014;BME280;46899;47.542;19.082;2022-07-23T12:46:56;100051.66;;;41.30;18.11
61014;BME280;46899;47.542;19.082;2022-07-23T12:49:58;100038.88;;;40.82;18.22
61014;BME280;46899;47.542;19.082;2022-07-23T12:53:05;100037.34;;;40.65;17.69
61014;BME280;46899;47.542;19.082;2022-07-23T12:59:16;100037.66;;;39.65;18.72
61014;BME280;46899;47.542;19.082;2022-07-23T13:02:20;100031.38;;;39.64;18.82
61014;BME280;46899;47.542;19.082;2022-07-23T13:05:22;100020.56;;;39.91;18.49
61014;BME280;46899;47.542;19.082;2022-07-23T13:08:27;100027.56;;;40.25;18.08
61014;BME280;46899;47.542;19.082;2022-07-23T13:11:30;100024.72;;;40.37;18.52
61014;BME280;46899;47.542;19.082;2022-07-23T13:14:33;100022.94;;;40.26;18.40
61014;BME280;46899;47.542;19.082;2022-07-23T13:17:36;100021.06;;;40.05;18.21
61014;BME280;46899;47.542;19.082;2022-07-23T13:20:39;100020.47;;;40.03;17.85
61014;BME280;46899;47.542;19.082;2022-07-23T13:23:41;100017.50;;;39.66;17.92
61014;BME280;46899;47.542;19.082;2022-07-23T13:26:44;100016.66;;;39.82;18.03
61014;BME280;46899;47.542;19.082;2022-07-23T13:29:49;100004.94;;;40.03;18.23
61014;BME280;46899;47.542;19.082;2022-07-23T13:32:51;99998.41;;;40.26;18.55
61014;BME280;46899;47.542;19.082;2022-07-23T13:36:01;99987.81;;;40.51;18.32
61014;BME280;46899;47.542;19.082;2022-07-23T13:39:05;99992.63;;;40.22;18.71
61014;BME280;46899;47.542;19.082;2022-07-23T13:42:10;99980.69;;;40.28;18.90
61014;BME280;46899;47.542;19.082;2022-07-23T13:45:13;99990.03;;;39.89;18.82
61014;BME280;46899;47.542;19.082;2022-07-23T13:48:15;99978.84;;;39.91;19.00
61014;BME280;46899;47.542;19.082;2022-07-23T13:51:20;99984.88;;;39.93;18.49
61014;BME280;46899;47.542;19.082;2022-07-23T13:54:26;99991.41;;;39.53;19.37
61014;BME280;46899;47.542;19.082;2022-07-23T13:57:30;99986.91;;;39.81;19.21
61014;BME280;46899;47.542;19.082;2022-07-23T14:00:33;99980.88;;;39.40;19.65
61014;BME280;46899;47.542;19.082;2022-07-23T14:03:54;99984.41;;;39.41;19.26
61014;BME280;46899;47.542;19.082;2022-07-23T14:06:57;99971.94;;;39.45;19.17
61014;BME280;46899;47.542;19.082;2022-07-23T14:10:00;99969.87;;;39.52;19.03
61014;BME280;46899;47.542;19.082;2022-07-23T14:13:03;99969.00;;;39.30;19.46
61014;BME280;46899;47.542;19.082;2022-07-23T14:16:06;99960.91;;;39.02;19.95
61014;BME280;46899;47.542;19.082;2022-07-23T14:19:09;99957.59;;;38.83;19.20
61014;BME280;46899;47.542;19.082;2022-07-23T14:22:11;99953.50;;;38.52;19.54
61014;BME280;46899;47.542;19.082;2022-07-23T14:25:14;99946.06;;;38.92;19.48
61014;BME280;46899;47.542;19.082;2022-07-23T14:28:18;99941.00;;;39.01;19.31
61014;BME280;46899;47.542;19.082;2022-07-23T14:31:22;99932.16;;;39.11;19.01
61014;BME280;46899;47.542;19.082;2022-07-23T14:34:25;99927.91;;;39.15;18.23
61014;BME280;46899;47.542;19.082;2022-07-23T14:37:47;99921.81;;;38.91;18.22
61014;BME280;46899;47.542;19.082;2022-07-23T14:40:50;99904.63;;;38.57;18.78
61014;BME280;46899;47.542;19.082;2022-07-23T14:43:53;99899.91;;;38.36;18.91
61014;BME280;46899;47.542;19.082;2022-07-23T14:46:56;99904.16;;;38.04;19.01
61014;BME280;46899;47.542;19.082;2022-07-23T14:49:58;99892.06;;;37.72;19.67
61014;BME280;46899;47.542;19.082;2022-07-23T14:53:01;99889.28;;;37.43;19.72
61014;BME280;46899;47.542;19.082;2022-07-23T14:56:04;99893.56;;;37.28;19.95
61014;BME280;46899;47.542;19.082;2022-07-23T14:59:07;99896.28;;;36.93;19.95
61014;BME280;46899;47.542;19.082;2022-07-23T15:02:10;99901.03;;;36.68;21.35
61014;BME280;46899;47.542;19.082;2022-07-23T15:05:15;99904.44;;;36.52;21.06
61014;BME280;46899;47.542;19.082;2022-07-23T15:08:19;99898.59;;;36.36;20.03
61014;BME280;46899;47.542;19.082;2022-07-23T15:11:25;99906.59;;;36.31;19.65
61014;BME280;46899;47.542;19.082;2022-07-23T15:14:28;99909.81;;;36.40;19.55
61014;BME280;46899;47.542;19.082;2022-07-23T15:17:36;99914.78;;;36.43;19.83
61014;BME280;46899;47.542;19.082;2022-07-23T15:20:39;99913.66;;;36.32;19.69
61014;BME280;46899;47.542;19.082;2022-07-23T15:23:42;99919.28;;;36.19;20.87
61014;BME280;46899;47.542;19.082;2022-07-23T15:26:46;99920.97;;;36.02;21.55
61014;BME280;46899;47.542;19.082;2022-07-23T15:29:49;99913.59;;;35.91;21.95
61014;BME280;46899;47.542;19.082;2022-07-23T15:32:51;99911.88;;;35.79;22.67
61014;BME280;46899;47.542;19.082;2022-07-23T15:35:54;99910.47;;;35.58;23.20
61014;BME280;46899;47.542;19.082;2022-07-23T15:39:01;99911.13;;;35.35;23.03
61014;BME280;46899;47.542;19.082;2022-07-23T15:42:04;99921.47;;;35.20;24.22
61014;BME280;46899;47.542;19.082;2022-07-23T15:45:16;99924.66;;;35.11;24.49
61014;BME280;46899;47.542;19.082;2022-07-23T15:48:19;99967.09;;;34.85;23.83
61014;BME280;46899;47.542;19.082;2022-07-23T15:51:22;99970.56;;;34.68;25.95
61014;BME280;46899;47.542;19.082;2022-07-23T15:54:25;99980.59;;;34.16;27.74
61014;BME280;46899;47.542;19.082;2022-07-23T15:57:27;99996.09;;;33.77;29.14
61014;BME280;46899;47.542;19.082;2022-07-23T16:00:31;100000.91;;;33.29;30.04
61014;BME280;46899;47.542;19.082;2022-07-23T16:03:34;100005.00;;;32.92;30.91
61014;BME280;46899;47.542;19.082;2022-07-23T16:06:37;100002.06;;;32.61;31.76
61014;BME280;46899;47.542;19.082;2022-07-23T16:09:40;100011.03;;;32.27;33.09
61014;BME280;46899;47.542;19.082;2022-07-23T16:12:42;100047.16;;;31.98;33.96
61014;BME280;46899;47.542;19.082;2022-07-23T16:15:45;100049.22;;;31.68;34.77
61014;BME280;46899;47.542;19.082;2022-07-23T16:18:47;100045.84;;;31.60;35.33